sensor_id;sensor_type;location;lat;lon;timestamp;P1;durP1;ratioP1;P2;durP2;ratioP2
43809;SDS011;29440;48.208;11.162;2023-01-04T00:01:57;9.15;;;5.32;;
43809;SDS011;29440;48.208;11.162;2023-01-04T00:04:23;12.15;;;5.30;;
43809;SDS011;29440;48.208;11.162;2023-01-04T00:06:48;18.52;;;6.60;;
43809;SDS011;29440;48.208;11.162;2023-01-04T00:09:14;21.75;;;6.85;;
43809;SDS011;29440;48.208;11.162;2023-01-04T00:11:39;35.28;;;6.32;;
43809;SDS011;29440;48.208;11.162;2023-01-04T00:14:05;26.35;;;6.53;;
43809;SDS011;29440;48.208;11.162;2023-01-04T00:16:30;23.77;;;7.30;;
43809;SDS011;29440;48.208;11.162;2023-01-04T00:18:56;19.77;;;6.47;;
43809;SDS011;29440;48.208;11.162;2023-01-04T00:21:24;28.17;;;6.45;;
43809;SDS011;29440;48.208;11.162;2023-01-04T00:23:57;8.98;;;6.13;;
43809;SDS011;29440;48.208;11.162;2023-01-04T00:26:31;26.27;;;6.57;;
43809;SDS011;29440;48.208;11.162;2023-01-04T00:28:59;7.90;;;5.45;;
43809;SDS011;29440;48.208;11.162;2023-01-04T00:31:26;20.58;;;5.60;;
43809;SDS011;29440;48.208;11.162;2023-01-04T00:33:53;38.85;;;6.30;;
43809;SDS011;29440;48.208;11.162;2023-01-04T00:36:23;30.85;;;6.10;;
43809;SDS011;29440;48.208;11.162;2023-01-04T00:38:49;14.20;;;6.25;;
43809;SDS011;29440;48.208;11.162;2023-01-04T00:44:09;115.07;;;8.82;;
43809;SDS011;29440;48.208;11.162;2023-01-04T00:46:35;87.03;;;9.18;;
43809;SDS011;29440;48.208;11.162;2023-01-04T00:49:02;44.53;;;8.63;;
43809;SDS011;29440;48.208;11.162;2023-01-04T00:51:28;138.05;;;11.43;;
43809;SDS011;29440;48.208;11.162;2023-01-04T00:53:56;86.85;;;9.98;;
43809;SDS011;29440;48.208;11.162;2023-01-04T00:56:23;77.80;;;9.63;;
43809;SDS011;29440;48.208;11.162;2023-01-04T00:58:52;111.70;;;10.73;;
43809;SDS011;29440;48.208;11.162;2023-01-04T01:01:19;120.55;;;14.43;;
43809;SDS011;29440;48.208;11.162;2023-01-04T01:03:45;67.30;;;10.75;;
43809;SDS011;29440;48.208;11.162;2023-01-04T01:06:11;46.38;;;10.25;;
43809;SDS011;29440;48.208;11.162;2023-01-04T01:08:37;100.57;;;13.25;;
43809;SDS011;29440;48.208;11.162;2023-01-04T01:11:07;88.78;;;13.50;;
43809;SDS011;29440;48.208;11.162;2023-01-04T01:13:33;79.97;;;11.02;;
43809;SDS011;29440;48.208;11.162;2023-01-04T01:16:01;42.47;;;11.20;;
43809;SDS011;29440;48.208;11.162;2023-01-04T01:18:34;22.70;;;9.77;;
43809;SDS011;29440;48.208;11.162;2023-01-04T01:21:03;77.18;;;13.52;;
43809;SDS011;29440;48.208;11.162;2023-01-04T01:23:30;61.17;;;12.68;;
43809;SDS011;29440;48.208;11.162;2023-01-04T01:25:59;110.20;;;14.10;;
43809;SDS011;29440;48.208;11.162;2023-01-04T01:28:26;35.70;;;10.82;;
43809;SDS011;29440;48.208;11.162;2023-01-04T01:30:52;53.47;;;11.98;;
43809;SDS011;29440;48.208;11.162;2023-01-04T01:33:17;22.02;;;11.07;;
43809;SDS011;29440;48.208;11.162;2023-01-04T01:35:43;28.40;;;13.48;;
43809;SDS011;29440;48.208;11.162;2023-01-04T01:38:08;26.40;;;11.75;;
43809;SDS011;29440;48.208;11.162;2023-01-04T01:40:34;27.77;;;12.30;;
43809;SDS011;29440;48.208;11.162;2023-01-04T01:43:15;28.58;;;12.30;;
43809;SDS011;29440;48.208;11.162;2023-01-04T01:45:42;27.35;;;11.88;;
43809;SDS011;29440;48.208;11.162;2023-01-04T01:48:14;26.73;;;11.43;;
43809;SDS011;29440;48.208;11.162;2023-01-04T01:50:46;23.67;;;10.93;;
43809;SDS011;29440;48.208;11.162;2023-01-04T01:53:15;26.08;;;11.50;;
43809;SDS011;29440;48.208;11.162;2023-01-04T01:55:41;27.55;;;11.30;;
43809;SDS011;29440;48.208;11.162;2023-01-04T01:58:09;30.63;;;12.23;;
43809;SDS011;29440;48.208;11.162;2023-01-04T02:00:42;29.90;;;11.87;;
43809;SDS011;29440;48.208;11.162;2023-01-04T02:03:20;35.60;;;12.70;;
43809;SDS011;29440;48.208;11.162;2023-01-04T02:05:49;29.83;;;11.82;;
43809;SDS011;29440;48.208;11.162;2023-01-04T02:08:17;27.23;;;10.45;;
43809;SDS011;29440;48.208;11.162;2023-01-04T02:10:46;26.17;;;10.57;;
43809;SDS011;29440;48.208;11.162;2023-01-04T02:13:13;31.77;;;12.82;;
43809;SDS011;29440;48.208;11.162;2023-01-04T02:18:32;24.17;;;11.68;;
43809;SDS011;29440;48.208;11.162;2023-01-04T02:21:09;24.13;;;10.27;;
43809;SDS011;29440;48.208;11.162;2023-01-04T02:26:35;23.30;;;10.90;;
43809;SDS011;29440;48.208;11.162;2023-01-04T02:29:26;19.25;;;9.48;;
43809;SDS011;29440;48.208;11.162;2023-01-04T02:32:02;17.73;;;9.15;;
43809;SDS011;29440;48.208;11.162;2023-01-04T02:34:47;17.42;;;8.55;;
43809;SDS011;29440;48.208;11.162;2023-01-04T02:37:37;17.67;;;9.02;;
43809;SDS011;29440;48.208;11.162;2023-01-04T02:40:22;16.17;;;8.73;;
43809;SDS011;29440;48.208;11.162;2023-01-04T02:45:43;14.63;;;7.72;;
43809;SDS011;29440;48.208;11.162;2023-01-04T02:48:19;15.63;;;8.40;;
43809;SDS011;29440;48.208;11.162;2023-01-04T02:51:03;16.48;;;8.18;;
43809;SDS011;29440;48.208;11.162;2023-01-04T02:53:34;16.65;;;8.15;;
43809;SDS011;29440;48.208;11.162;2023-01-04T02:56:06;14.02;;;7.25;;
43809;SDS011;29440;48.208;11.162;2023-01-04T03:01:30;13.57;;;7.05;;
43809;SDS011;29440;48.208;11.162;2023-01-04T03:04:46;13.03;;;7.00;;
43809;SDS011;29440;48.208;11.162;2023-01-04T03:07:53;13.85;;;6.63;;
43809;SDS011;29440;48.208;11.162;2023-01-04T03:13:25;10.50;;;5.90;;
43809;SDS011;29440;48.208;11.162;2023-01-04T03:15:58;10.60;;;6.35;;
43809;SDS011;29440;48.208;11.162;2023-01-04T03:18:30;10.83;;;6.60;;
43809;SDS011;29440;48.208;11.162;2023-01-04T03:21:00;9.80;;;5.95;;
43809;SDS011;29440;48.208;11.162;2023-01-04T03:23:28;12.18;;;6.72;;
43809;SDS011;29440;48.208;11.162;2023-01-04T03:26:23;11.38;;;6.30;;
43809;SDS011;29440;48.208;11.162;2023-01-04T03:29:15;12.25;;;6.93;;
43809;SDS011;29440;48.208;11.162;2023-01-04T03:32:14;11.85;;;6.68;;
43809;SDS011;29440;48.208;11.162;2023-01-04T03:35:05;12.02;;;6.60;;
43809;SDS011;29440;48.208;11.162;2023-01-04T03:38:05;11.30;;;6.50;;
43809;SDS011;29440;48.208;11.162;2023-01-04T03:41:05;12.30;;;6.93;;
43809;SDS011;29440;48.208;11.162;2023-01-04T03:44:10;12.40;;;6.53;;
43809;SDS011;29440;48.208;11.162;2023-01-04T03:50:35;10.90;;;5.28;;
43809;SDS011;29440;48.208;11.162;2023-01-04T03:53:06;12.55;;;6.30;;
43809;SDS011;29440;48.208;11.162;2023-01-04T03:55:33;10.00;;;6.05;;
43809;SDS011;29440;48.208;11.162;2023-01-04T03:58:00;13.20;;;6.03;;
43809;SDS011;29440;48.208;11.162;2023-01-04T04:00:26;10.10;;;5.90;;
43809;SDS011;29440;48.208;11.162;2023-01-04T04:02:52;10.85;;;6.63;;
43809;SDS011;29440;48.208;11.162;2023-01-04T04:05:21;14.15;;;7.40;;
43809;SDS011;29440;48.208;11.162;2023-01-04T04:08:07;11.57;;;6.13;;
43809;SDS011;29440;48.208;11.162;2023-01-04T04:10:51;10.77;;;6.22;;
43809;SDS011;29440;48.208;11.162;2023-01-04T04:13:18;10.77;;;6.25;;
43809;SDS011;29440;48.208;11.162;2023-01-04T04:15:43;11.30;;;6.30;;
43809;SDS011;29440;48.208;11.162;2023-01-04T04:18:09;10.20;;;5.88;;
43809;SDS011;29440;48.208;11.162;2023-01-04T04:20:34;11.07;;;6.95;;
43809;SDS011;29440;48.208;11.162;2023-01-04T04:23:00;11.40;;;6.80;;
43809;SDS011;29440;48.208;11.162;2023-01-04T04:25:25;9.88;;;5.90;;
43809;SDS011;29440;48.208;11.162;2023-01-04T04:27:51;13.05;;;5.63;;
43809;SDS011;29440;48.208;11.162;2023-01-04T04:30:17;10.05;;;5.20;;
43809;SDS011;29440;48.208;11.162;2023-01-04T04:32:42;9.30;;;5.00;;
43809;SDS011;29440;48.208;11.162;2023-01-04T04:35:08;9.55;;;5.28;;
43809;SDS011;29440;48.208;11.162;2023-01-04T04:37:33;9.15;;;5.20;;
43809;SDS011;29440;48.208;11.162;2023-01-04T04:39:59;8.73;;;4.80;;
43809;SDS011;29440;48.208;11.162;2023-01-04T04:42:25;10.45;;;4.70;;
43809;SDS011;29440;48.208;11.162;2023-01-04T04:44:51;8.90;;;5.15;;
43809;SDS011;29440;48.208;11.162;2023-01-04T04:47:17;9.43;;;5.18;;
43809;SDS011;29440;48.208;11.162;2023-01-04T04:49:42;10.85;;;5.22;;
43809;SDS011;29440;48.208;11.162;2023-01-04T04:52:08;13.15;;;6.68;;
43809;SDS011;29440;48.208;11.162;2023-01-04T04:54:34;11.25;;;6.00;;
43809;SDS011;29440;48.208;11.162;2023-01-04T04:56:59;11.80;;;6.38;;
43809;SDS011;29440;48.208;11.162;2023-01-04T04:59:25;10.18;;;5.35;;
43809;SDS011;29440;48.208;11.162;2023-01-04T05:01:50;10.07;;;5.47;;
43809;SDS011;29440;48.208;11.162;2023-01-04T05:04:16;9.85;;;5.88;;
43809;SDS011;29440;48.208;11.162;2023-01-04T05:06:44;8.57;;;4.95;;
43809;SDS011;29440;48.208;11.162;2023-01-04T05:09:11;9.02;;;5.00;;
43809;SDS011;29440;48.208;11.162;2023-01-04T05:11:38;9.40;;;5.05;;
43809;SDS011;29440;48.208;11.162;2023-01-04T05:14:22;9.93;;;5.10;;
43809;SDS011;29440;48.208;11.162;2023-01-04T05:16:48;8.93;;;4.63;;
43809;SDS011;29440;48.208;11.162;2023-01-04T05:19:13;9.30;;;5.22;;
43809;SDS011;29440;48.208;11.162;2023-01-04T05:21:39;7.15;;;4.07;;
43809;SDS011;29440;48.208;11.162;2023-01-04T05:24:05;7.47;;;3.85;;
43809;SDS011;29440;48.208;11.162;2023-01-04T05:26:31;7.45;;;3.65;;
43809;SDS011;29440;48.208;11.162;2023-01-04T05:28:57;6.25;;;3.63;;
43809;SDS011;29440;48.208;11.162;2023-01-04T05:31:22;8.15;;;3.70;;
43809;SDS011;29440;48.208;11.162;2023-01-04T05:33:49;8.95;;;3.80;;
43809;SDS011;29440;48.208;11.162;2023-01-04T05:36:14;7.47;;;3.95;;
43809;SDS011;29440;48.208;11.162;2023-01-04T05:38:40;10.43;;;4.82;;
43809;SDS011;29440;48.208;11.162;2023-01-04T05:41:05;8.98;;;4.28;;
43809;SDS011;29440;48.208;11.162;2023-01-04T05:43:51;10.43;;;5.05;;
43809;SDS011;29440;48.208;11.162;2023-01-04T05:46:17;11.13;;;5.13;;
43809;SDS011;29440;48.208;11.162;2023-01-04T05:48:42;8.32;;;4.43;;
43809;SDS011;29440;48.208;11.162;2023-01-04T05:51:08;8.82;;;4.78;;
43809;SDS011;29440;48.208;11.162;2023-01-04T05:53:33;8.05;;;3.92;;
43809;SDS011;29440;48.208;11.162;2023-01-04T05:55:59;10.23;;;4.47;;
43809;SDS011;29440;48.208;11.162;2023-01-04T05:58:24;10.07;;;5.20;;
43809;SDS011;29440;48.208;11.162;2023-01-04T06:00:50;11.07;;;5.15;;
43809;SDS011;29440;48.208;11.162;2023-01-04T06:03:16;9.63;;;4.90;;
43809;SDS011;29440;48.208;11.162;2023-01-04T06:05:42;8.70;;;4.22;;
43809;SDS011;29440;48.208;11.162;2023-01-04T06:08:07;8.82;;;4.55;;
43809;SDS011;29440;48.208;11.162;2023-01-04T06:10:33;7.20;;;3.83;;
43809;SDS011;29440;48.208;11.162;2023-01-04T06:12:58;7.88;;;4.20;;
43809;SDS011;29440;48.208;11.162;2023-01-04T06:15:24;5.47;;;2.85;;
43809;SDS011;29440;48.208;11.162;2023-01-04T06:17:49;5.63;;;3.22;;
43809;SDS011;29440;48.208;11.162;2023-01-04T06:20:15;6.18;;;3.53;;
43809;SDS011;29440;48.208;11.162;2023-01-04T06:22:40;5.65;;;2.90;;
43809;SDS011;29440;48.208;11.162;2023-01-04T06:25:07;6.82;;;3.42;;
43809;SDS011;29440;48.208;11.162;2023-01-04T06:27:33;5.00;;;3.10;;
43809;SDS011;29440;48.208;11.162;2023-01-04T06:29:59;6.45;;;3.42;;
43809;SDS011;29440;48.208;11.162;2023-01-04T06:32:24;9.77;;;3.45;;
43809;SDS011;29440;48.208;11.162;2023-01-04T06:34:50;7.60;;;3.75;;
43809;SDS011;29440;48.208;11.162;2023-01-04T06:37:16;6.15;;;2.92;;
43809;SDS011;29440;48.208;11.162;2023-01-04T06:39:41;6.78;;;3.53;;
43809;SDS011;29440;48.208;11.162;2023-01-04T06:42:07;6.75;;;3.50;;
43809;SDS011;29440;48.208;11.162;2023-01-04T06:44:52;5.43;;;3.10;;
43809;SDS011;29440;48.208;11.162;2023-01-04T06:47:18;6.13;;;3.38;;
43809;SDS011;29440;48.208;11.162;2023-01-04T06:49:43;6.07;;;3.50;;
43809;SDS011;29440;48.208;11.162;2023-01-04T06:52:09;5.22;;;2.70;;
43809;SDS011;29440;48.208;11.162;2023-01-04T06:54:34;5.57;;;3.10;;
43809;SDS011;29440;48.208;11.162;2023-01-04T06:57:00;6.63;;;3.60;;
43809;SDS011;29440;48.208;11.162;2023-01-04T06:59:25;5.97;;;3.42;;
43809;SDS011;29440;48.208;11.162;2023-01-04T07:01:51;5.55;;;2.78;;
43809;SDS011;29440;48.208;11.162;2023-01-04T07:04:17;5.25;;;2.83;;
43809;SDS011;29440;48.208;11.162;2023-01-04T07:06:42;6.20;;;2.83;;
43809;SDS011;29440;48.208;11.162;2023-01-04T07:09:08;6.78;;;3.10;;
43809;SDS011;29440;48.208;11.162;2023-01-04T07:11:33;6.20;;;2.97;;
43809;SDS011;29440;48.208;11.162;2023-01-04T07:13:59;7.28;;;3.17;;
43809;SDS011;29440;48.208;11.162;2023-01-04T07:16:24;5.75;;;3.10;;
43809;SDS011;29440;48.208;11.162;2023-01-04T07:18:50;5.57;;;3.00;;
43809;SDS011;29440;48.208;11.162;2023-01-04T07:21:15;5.85;;;2.80;;
43809;SDS011;29440;48.208;11.162;2023-01-04T07:23:41;4.57;;;2.60;;
43809;SDS011;29440;48.208;11.162;2023-01-04T07:26:06;7.22;;;3.10;;
43809;SDS011;29440;48.208;11.162;2023-01-04T07:28:32;7.05;;;3.47;;
43809;SDS011;29440;48.208;11.162;2023-01-04T07:31:16;6.22;;;3.22;;
43809;SDS011;29440;48.208;11.162;2023-01-04T07:33:42;6.72;;;3.25;;
43809;SDS011;29440;48.208;11.162;2023-01-04T07:36:07;4.75;;;2.90;;
43809;SDS011;29440;48.208;11.162;2023-01-04T07:38:33;4.50;;;2.72;;
43809;SDS011;29440;48.208;11.162;2023-01-04T07:40:59;4.47;;;2.38;;
43809;SDS011;29440;48.208;11.162;2023-01-04T07:43:25;4.60;;;2.13;;
43809;SDS011;29440;48.208;11.162;2023-01-04T07:45:51;2.88;;;1.70;;
43809;SDS011;29440;48.208;11.162;2023-01-04T07:48:16;3.03;;;1.60;;
43809;SDS011;29440;48.208;11.162;2023-01-04T07:50:43;2.80;;;1.70;;
43809;SDS011;29440;48.208;11.162;2023-01-04T07:53:09;3.78;;;1.88;;
43809;SDS011;29440;48.208;11.162;2023-01-04T07:55:36;2.92;;;1.65;;
43809;SDS011;29440;48.208;11.162;2023-01-04T07:58:01;2.47;;;1.65;;
43809;SDS011;29440;48.208;11.162;2023-01-04T08:00:27;4.20;;;1.75;;
43809;SDS011;29440;48.208;11.162;2023-01-04T08:02:53;3.90;;;1.58;;
43809;SDS011;29440;48.208;11.162;2023-01-04T08:05:18;3.90;;;1.98;;
43809;SDS011;29440;48.208;11.162;2023-01-04T08:07:44;4.50;;;1.90;;
43809;SDS011;29440;48.208;11.162;2023-01-04T08:10:09;2.78;;;1.70;;
43809;SDS011;29440;48.208;11.162;2023-01-04T08:12:35;6.47;;;1.60;;
43809;SDS011;29440;48.208;11.162;2023-01-04T08:15:00;3.65;;;1.95;;
43809;SDS011;29440;48.208;11.162;2023-01-04T08:17:26;4.13;;;1.65;;
43809;SDS011;29440;48.208;11.162;2023-01-04T08:19:55;3.00;;;1.13;;
43809;SDS011;29440;48.208;11.162;2023-01-04T08:22:21;3.53;;;1.30;;
43809;SDS011;29440;48.208;11.162;2023-01-04T08:24:46;1.60;;;0.90;;
43809;SDS011;29440;48.208;11.162;2023-01-04T08:27:12;1.63;;;1.02;;
43809;SDS011;29440;48.208;11.162;2023-01-04T08:29:37;1.42;;;0.90;;
43809;SDS011;29440;48.208;11.162;2023-01-04T08:32:03;1.55;;;0.93;;
43809;SDS011;29440;48.208;11.162;2023-01-04T08:34:29;1.48;;;0.77;;
43809;SDS011;29440;48.208;11.162;2023-01-04T08:36:55;1.20;;;0.82;;
43809;SDS011;29440;48.208;11.162;2023-01-04T08:39:22;2.00;;;0.80;;
43809;SDS011;29440;48.208;11.162;2023-01-04T08:41:48;1.20;;;0.70;;
43809;SDS011;29440;48.208;11.162;2023-01-04T08:44:18;1.20;;;0.60;;
43809;SDS011;29440;48.208;11.162;2023-01-04T08:46:48;1.48;;;0.73;;
43809;SDS011;29440;48.208;11.162;2023-01-04T08:49:15;1.50;;;0.70;;
43809;SDS011;29440;48.208;11.162;2023-01-04T08:51:40;1.80;;;0.90;;
43809;SDS011;29440;48.208;11.162;2023-01-04T08:54:07;1.67;;;0.70;;
43809;SDS011;29440;48.208;11.162;2023-01-04T08:56:33;1.40;;;0.70;;
43809;SDS011;29440;48.208;11.162;2023-01-04T08:58:59;1.35;;;0.80;;
43809;SDS011;29440;48.208;11.162;2023-01-04T09:01:25;1.52;;;0.80;;
43809;SDS011;29440;48.208;11.162;2023-01-04T09:03:50;1.30;;;0.70;;
43809;SDS011;29440;48.208;11.162;2023-01-04T09:06:16;3.55;;;0.82;;
43809;SDS011;29440;48.208;11.162;2023-01-04T09:08:43;1.38;;;0.70;;
43809;SDS011;29440;48.208;11.162;2023-01-04T09:11:12;1.40;;;0.70;;
43809;SDS011;29440;48.208;11.162;2023-01-04T09:13:40;1.95;;;1.10;;
43809;SDS011;29440;48.208;11.162;2023-01-04T09:16:16;2.30;;;0.80;;
43809;SDS011;29440;48.208;11.162;2023-01-04T09:18:43;1.40;;;0.67;;
43809;SDS011;29440;48.208;11.162;2023-01-04T09:21:11;1.48;;;0.80;;
43809;SDS011;29440;48.208;11.162;2023-01-04T09:23:41;2.90;;;1.10;;
43809;SDS011;29440;48.208;11.162;2023-01-04T09:26:08;2.20;;;0.95;;
43809;SDS011;29440;48.208;11.162;2023-01-04T09:28:36;1.70;;;0.60;;
43809;SDS011;29440;48.208;11.162;2023-01-04T09:31:06;2.67;;;1.25;;
43809;SDS011;29440;48.208;11.162;2023-01-04T09:33:32;1.85;;;0.70;;
43809;SDS011;29440;48.208;11.162;2023-01-04T09:36:02;1.20;;;0.70;;
43809;SDS011;29440;48.208;11.162;2023-01-04T09:38:29;0.80;;;0.60;;
43809;SDS011;29440;48.208;11.162;2023-01-04T09:43:49;1.42;;;0.60;;
43809;SDS011;29440;48.208;11.162;2023-01-04T09:46:25;1.20;;;0.50;;
43809;SDS011;29440;48.208;11.162;2023-01-04T09:49:17;1.17;;;0.50;;
43809;SDS011;29440;48.208;11.162;2023-01-04T09:51:46;1.65;;;0.82;;
43809;SDS011;29440;48.208;11.162;2023-01-04T09:54:22;1.90;;;0.75;;
43809;SDS011;29440;48.208;11.162;2023-01-04T09:59:26;1.83;;;0.60;;
43809;SDS011;29440;48.208;11.162;2023-01-04T10:02:30;0.63;;;0.40;;
43809;SDS011;29440;48.208;11.162;2023-01-04T10:05:20;2.80;;;0.73;;
43809;SDS011;29440;48.208;11.162;2023-01-04T10:07:53;1.20;;;0.60;;
43809;SDS011;29440;48.208;11.162;2023-01-04T10:10:20;1.77;;;0.60;;
43809;SDS011;29440;48.208;11.162;2023-01-04T10:18:48;1.75;;;0.73;;
43809;SDS011;29440;48.208;11.162;2023-01-04T10:21:36;1.83;;;0.70;;
43809;SDS011;29440;48.208;11.162;2023-01-04T10:27:10;2.65;;;0.90;;
43809;SDS011;29440;48.208;11.162;2023-01-04T10:37:42;2.65;;;0.80;;
43809;SDS011;29440;48.208;11.162;2023-01-04T10:40:12;2.33;;;0.75;;
43809;SDS011;29440;48.208;11.162;2023-01-04T10:42:44;1.70;;;0.60;;
43809;SDS011;29440;48.208;11.162;2023-01-04T10:45:27;0.90;;;0.50;;
43809;SDS011;29440;48.208;11.162;2023-01-04T10:48:09;1.73;;;0.88;;
43809;SDS011;29440;48.208;11.162;2023-01-04T10:51:01;3.50;;;0.70;;
43809;SDS011;29440;48.208;11.162;2023-01-04T10:53:31;2.80;;;0.47;;
43809;SDS011;29440;48.208;11.162;2023-01-04T10:56:16;1.30;;;0.40;;
43809;SDS011;29440;48.208;11.162;2023-01-04T10:59:02;2.28;;;0.82;;
43809;SDS011;29440;48.208;11.162;2023-01-04T11:04:15;1.30;;;0.50;;
43809;SDS011;29440;48.208;11.162;2023-01-04T11:06:49;0.60;;;0.37;;
43809;SDS011;29440;48.208;11.162;2023-01-04T11:09:25;3.08;;;0.60;;
43809;SDS011;29440;48.208;11.162;2023-01-04T11:11:58;1.58;;;0.40;;
43809;SDS011;29440;48.208;11.162;2023-01-04T11:14:26;0.98;;;0.70;;
43809;SDS011;29440;48.208;11.162;2023-01-04T11:16:55;0.93;;;0.50;;
43809;SDS011;29440;48.208;11.162;2023-01-04T11:19:26;2.53;;;0.38;;
43809;SDS011;29440;48.208;11.162;2023-01-04T11:21:55;1.75;;;0.43;;
43809;SDS011;29440;48.208;11.162;2023-01-04T11:24:25;0.80;;;0.50;;
43809;SDS011;29440;48.208;11.162;2023-01-04T11:26:54;1.48;;;0.40;;
43809;SDS011;29440;48.208;11.162;2023-01-04T11:29:43;0.82;;;0.40;;
43809;SDS011;29440;48.208;11.162;2023-01-04T11:35:00;1.05;;;0.50;;
43809;SDS011;29440;48.208;11.162;2023-01-04T11:39:56;0.82;;;0.40;;
43809;SDS011;29440;48.208;11.162;2023-01-04T11:42:37;2.65;;;0.50;;
43809;SDS011;29440;48.208;11.162;2023-01-04T11:45:03;1.85;;;0.50;;
43809;SDS011;29440;48.208;11.162;2023-01-04T11:47:29;0.75;;;0.40;;
43809;SDS011;29440;48.208;11.162;2023-01-04T11:49:54;1.08;;;0.70;;
43809;SDS011;29440;48.208;11.162;2023-01-04T11:58:06;2.55;;;0.50;;
43809;SDS011;29440;48.208;11.162;2023-01-04T12:00:32;1.25;;;0.22;;
43809;SDS011;29440;48.208;11.162;2023-01-04T12:03:11;1.10;;;0.57;;
43809;SDS011;29440;48.208;11.162;2023-01-04T12:05:38;1.10;;;0.40;;
43809;SDS011;29440;48.208;11.162;2023-01-04T12:08:03;0.60;;;0.30;;
43809;SDS011;29440;48.208;11.162;2023-01-04T12:10:32;0.45;;;0.30;;
43809;SDS011;29440;48.208;11.162;2023-01-04T12:12:59;1.10;;;0.30;;
43809;SDS011;29440;48.208;11.162;2023-01-04T12:15:33;0.80;;;0.30;;
43809;SDS011;29440;48.208;11.162;2023-01-04T12:18:28;0.55;;;0.40;;
43809;SDS011;29440;48.208;11.162;2023-01-04T12:20:59;0.60;;;0.30;;
43809;SDS011;29440;48.208;11.162;2023-01-04T12:23:26;1.35;;;0.43;;
43809;SDS011;29440;48.208;11.162;2023-01-04T12:25:52;0.77;;;0.50;;
43809;SDS011;29440;48.208;11.162;2023-01-04T12:33:46;0.70;;;0.30;;
43809;SDS011;29440;48.208;11.162;2023-01-04T12:39:05;0.38;;;0.25;;
43809;SDS011;29440;48.208;11.162;2023-01-04T12:55:22;0.65;;;0.30;;
43809;SDS011;29440;48.208;11.162;2023-01-04T13:06:02;0.75;;;0.30;;
43809;SDS011;29440;48.208;11.162;2023-01-04T13:08:30;1.27;;;0.20;;
43809;SDS011;29440;48.208;11.162;2023-01-04T13:11:02;0.52;;;0.30;;
43809;SDS011;29440;48.208;11.162;2023-01-04T13:13:40;1.58;;;0.40;;
43809;SDS011;29440;48.208;11.162;2023-01-04T13:19:40;0.50;;;0.20;;
43809;SDS011;29440;48.208;11.162;2023-01-04T13:22:09;1.08;;;0.22;;
43809;SDS011;29440;48.208;11.162;2023-01-04T13:24:43;8.85;;;5.10;;
43809;SDS011;29440;48.208;11.162;2023-01-04T13:27:14;1.55;;;0.95;;
43809;SDS011;29440;48.208;11.162;2023-01-04T13:29:47;1.23;;;0.35;;
43809;SDS011;29440;48.208;11.162;2023-01-04T13:32:20;0.98;;;0.30;;
43809;SDS011;29440;48.208;11.162;2023-01-04T13:34:54;1.30;;;0.30;;
43809;SDS011;29440;48.208;11.162;2023-01-04T13:37:42;0.40;;;0.20;;
43809;SDS011;29440;48.208;11.162;2023-01-04T13:40:19;0.70;;;0.30;;
43809;SDS011;29440;48.208;11.162;2023-01-04T13:48:38;3.38;;;0.90;;
43809;SDS011;29440;48.208;11.162;2023-01-04T13:53:38;1.88;;;0.60;;
43809;SDS011;29440;48.208;11.162;2023-01-04T13:56:04;0.75;;;0.30;;
43809;SDS011;29440;48.208;11.162;2023-01-04T13:58:31;3.95;;;0.45;;
43809;SDS011;29440;48.208;11.162;2023-01-04T14:03:41;0.57;;;0.20;;
43809;SDS011;29440;48.208;11.162;2023-01-04T14:11:34;0.88;;;0.50;;
43809;SDS011;29440;48.208;11.162;2023-01-04T14:19:48;0.30;;;0.13;;
43809;SDS011;29440;48.208;11.162;2023-01-04T14:22:32;1.65;;;0.20;;
43809;SDS011;29440;48.208;11.162;2023-01-04T14:25:46;3.90;;;0.30;;
43809;SDS011;29440;48.208;11.162;2023-01-04T14:28:19;0.43;;;0.30;;
43809;SDS011;29440;48.208;11.162;2023-01-04T14:33:28;0.60;;;0.20;;
43809;SDS011;29440;48.208;11.162;2023-01-04T14:38:59;0.43;;;0.30;;
43809;SDS011;29440;48.208;11.162;2023-01-04T14:44:24;0.80;;;0.30;;
43809;SDS011;29440;48.208;11.162;2023-01-04T14:46:55;0.85;;;0.28;;
43809;SDS011;29440;48.208;11.162;2023-01-04T14:49:24;0.57;;;0.20;;
43809;SDS011;29440;48.208;11.162;2023-01-04T14:51:58;0.30;;;0.20;;
43809;SDS011;29440;48.208;11.162;2023-01-04T14:54:25;0.30;;;0.25;;
43809;SDS011;29440;48.208;11.162;2023-01-04T14:56:53;0.52;;;0.20;;
43809;SDS011;29440;48.208;11.162;2023-01-04T14:59:19;1.67;;;0.28;;
43809;SDS011;29440;48.208;11.162;2023-01-04T15:01:47;0.82;;;0.22;;
43809;SDS011;29440;48.208;11.162;2023-01-04T15:04:14;0.32;;;0.30;;
43809;SDS011;29440;48.208;11.162;2023-01-04T15:06:45;0.50;;;0.22;;
43809;SDS011;29440;48.208;11.162;2023-01-04T15:09:18;1.60;;;0.30;;
43809;SDS011;29440;48.208;11.162;2023-01-04T15:11:44;1.45;;;0.40;;
43809;SDS011;29440;48.208;11.162;2023-01-04T15:14:10;1.13;;;0.30;;
43809;SDS011;29440;48.208;11.162;2023-01-04T15:16:35;0.57;;;0.30;;
43809;SDS011;29440;48.208;11.162;2023-01-04T15:19:01;0.85;;;0.55;;
43809;SDS011;29440;48.208;11.162;2023-01-04T15:21:27;1.38;;;0.30;;
43809;SDS011;29440;48.208;11.162;2023-01-04T15:23:52;1.10;;;0.30;;
43809;SDS011;29440;48.208;11.162;2023-01-04T15:26:18;0.20;;;0.20;;
43809;SDS011;29440;48.208;11.162;2023-01-04T15:28:44;0.20;;;0.20;;
43809;SDS011;29440;48.208;11.162;2023-01-04T15:31:10;0.88;;;0.40;;
43809;SDS011;29440;48.208;11.162;2023-01-04T15:33:37;0.95;;;0.32;;
43809;SDS011;29440;48.208;11.162;2023-01-04T15:36:07;1.27;;;0.30;;
43809;SDS011;29440;48.208;11.162;2023-01-04T15:38:38;0.40;;;0.20;;
43809;SDS011;29440;48.208;11.162;2023-01-04T15:41:08;0.47;;;0.28;;
43809;SDS011;29440;48.208;11.162;2023-01-04T15:43:56;0.32;;;0.22;;
43809;SDS011;29440;48.208;11.162;2023-01-04T15:46:22;1.05;;;0.30;;
43809;SDS011;29440;48.208;11.162;2023-01-04T15:48:48;1.45;;;0.40;;
43809;SDS011;29440;48.208;11.162;2023-01-04T15:51:13;1.60;;;0.40;;
43809;SDS011;29440;48.208;11.162;2023-01-04T15:53:39;1.83;;;0.50;;
43809;SDS011;29440;48.208;11.162;2023-01-04T15:56:06;1.70;;;0.40;;
43809;SDS011;29440;48.208;11.162;2023-01-04T15:58:33;1.83;;;0.40;;
43809;SDS011;29440;48.208;11.162;2023-01-04T16:00:59;2.53;;;0.65;;
43809;SDS011;29440;48.208;11.162;2023-01-04T16:03:32;1.10;;;0.60;;
43809;SDS011;29440;48.208;11.162;2023-01-04T16:06:02;0.73;;;0.40;;
43809;SDS011;29440;48.208;11.162;2023-01-04T16:08:29;1.27;;;0.40;;
43809;SDS011;29440;48.208;11.162;2023-01-04T16:10:55;1.05;;;0.20;;
43809;SDS011;29440;48.208;11.162;2023-01-04T16:13:21;1.67;;;0.50;;
43809;SDS011;29440;48.208;11.162;2023-01-04T16:15:48;3.25;;;0.80;;
43809;SDS011;29440;48.208;11.162;2023-01-04T16:18:13;9.23;;;3.33;;
43809;SDS011;29440;48.208;11.162;2023-01-04T16:20:39;4.07;;;1.25;;
43809;SDS011;29440;48.208;11.162;2023-01-04T16:23:05;6.53;;;1.50;;
43809;SDS011;29440;48.208;11.162;2023-01-04T16:25:31;3.83;;;1.27;;
43809;SDS011;29440;48.208;11.162;2023-01-04T16:27:57;4.88;;;1.23;;
43809;SDS011;29440;48.208;11.162;2023-01-04T16:30:22;2.50;;;0.82;;
43809;SDS011;29440;48.208;11.162;2023-01-04T16:32:48;2.80;;;1.38;;
43809;SDS011;29440;48.208;11.162;2023-01-04T16:35:14;2.35;;;0.70;;
43809;SDS011;29440;48.208;11.162;2023-01-04T16:37:40;3.50;;;0.60;;
43809;SDS011;29440;48.208;11.162;2023-01-04T16:40:07;1.55;;;0.40;;
43809;SDS011;29440;48.208;11.162;2023-01-04T16:42:33;1.25;;;0.65;;
43809;SDS011;29440;48.208;11.162;2023-01-04T16:44:58;1.02;;;0.30;;
43809;SDS011;29440;48.208;11.162;2023-01-04T16:47:24;1.10;;;0.47;;